sensor_id;sensor_type;location;lat;lon;timestamp;pressure;altitude;pressure_sealevel;temperature;humidity
12475;BME280;6302;42.624;23.334;2023-02-20T00:02:52;93564.41;;;9.72;97.87
12475;BME280;6302;42.624;23.334;2023-02-20T00:05:19;93576.09;;;9.71;98.38
12475;BME280;6302;42.624;23.334;2023-02-20T00:07:46;93567.78;;;9.73;98.33
12475;BME280;6302;42.624;23.334;2023-02-20T00:10:14;93573.09;;;9.62;99.35
12475;BME280;6302;42.624;23.334;2023-02-20T00:12:41;93567.41;;;9.60;100.00
12475;BME280;6302;42.624;23.334;2023-02-20T00:15:09;93569.69;;;9.55;100.00
12475;BME280;6302;42.624;23.334;2023-02-20T00:17:40;93557.19;;;9.48;100.00
12475;BME280;6302;42.624;23.334;2023-02-20T00:20:10;93564.78;;;9.50;100.00
12475;BME280;6302;42.624;23.334;2023-02-20T00:22:37;93568.16;;;9.47;100.00
12475;BME280;6302;42.624;23.334;2023-02-20T00:25:04;93558.34;;;9.40;100.00
12475;BME280;6302;42.624;23.334;2023-02-20T00:27:31;93556.44;;;9.30;100.00
12475;BME280;6302;42.624;23.334;2023-02-20T00:29:57;93552.66;;;9.38;100.00
12475;BME280;6302;42.624;23.334;2023-02-20T00:32:24;93557.97;;;9.35;100.00
12475;BME280;6302;42.624;23.334;2023-02-20T00:34:51;93553.81;;;9.37;100.00
12475;BME280;6302;42.624;23.334;2023-02-20T00:37:19;93565.88;;;9.38;100.00
12475;BME280;6302;42.624;23.334;2023-02-20T00:39:46;93554.94;;;9.40;100.00
12475;BME280;6302;42.624;23.334;2023-02-20T00:42:13;93547.38;;;9.42;100.00
12475;BME280;6302;42.624;23.334;2023-02-20T00:44:39;93544.34;;;9.36;100.00
12475;BME280;6302;42.624;23.334;2023-02-20T00:47:06;93541.69;;;9.36;100.00
12475;BME280;6302;42.624;23.334;2023-02-20T00:49:33;93542.84;;;9.42;90.39
12475;BME280;6302;42.624;23.334;2023-02-20T00:52:00;93555.69;;;9.47;89.16
12475;BME280;6302;42.624;23.334;2023-02-20T00:54:28;93558.72;;;9.49;84.59
12475;BME280;6302;42.624;23.334;2023-02-20T00:56:55;93549.66;;;9.57;79.81
12475;BME280;6302;42.624;23.334;2023-02-20T00:59:21;93557.19;;;9.66;79.88
12475;BME280;6302;42.624;23.334;2023-02-20T01:01:48;93561.00;;;9.72;80.88
12475;BME280;6302;42.624;23.334;2023-02-20T01:04:15;93571.94;;;9.63;86.55
12475;BME280;6302;42.624;23.334;2023-02-20T01:06:42;93570.81;;;9.57;92.57
12475;BME280;6302;42.624;23.334;2023-02-20T01:09:09;93569.31;;;9.49;94.66
12475;BME280;6302;42.624;23.334;2023-02-20T01:11:37;93585.94;;;9.46;95.12
12475;BME280;6302;42.624;23.334;2023-02-20T01:14:04;93592.72;;;9.40;96.14
12475;BME280;6302;42.624;23.334;2023-02-20T01:16:31;93604.44;;;9.39;96.83
12475;BME280;6302;42.624;23.334;2023-02-20T01:18:58;93584.38;;;9.31;100.00
12475;BME280;6302;42.624;23.334;2023-02-20T01:21:24;93599.50;;;9.24;100.00
12475;BME280;6302;42.624;23.334;2023-02-20T01:23:51;93599.84;;;9.18;100.00
12475;BME280;6302;42.624;23.334;2023-02-20T01:26:18;93596.84;;;9.16;100.00
12475;BME280;6302;42.624;23.334;2023-02-20T01:28:46;93608.16;;;9.13;100.00
12475;BME280;6302;42.624;23.334;2023-02-20T01:31:14;93612.69;;;9.06;100.00
12475;BME280;6302;42.624;23.334;2023-02-20T01:33:41;93611.53;;;9.07;100.00
12475;BME280;6302;42.624;23.334;2023-02-20T01:36:09;93605.50;;;9.03;100.00
12475;BME280;6302;42.624;23.334;2023-02-20T01:38:38;93605.13;;;9.08;100.00
12475;BME280;6302;42.624;23.334;2023-02-20T01:41:06;93614.19;;;9.03;100.00
12475;BME280;6302;42.624;23.334;2023-02-20T01:43:33;93621.38;;;9.10;100.00
12475;BME280;6302;42.624;23.334;2023-02-20T01:49:03;93645.53;;;9.05;100.00
12475;BME280;6302;42.624;23.334;2023-02-20T01:51:35;93635.69;;;9.02;100.00
12475;BME280;6302;42.624;23.334;2023-02-20T01:54:06;93639.09;;;8.99;100.00
12475;BME280;6302;42.624;23.334;2023-02-20T01:56:34;93637.19;;;8.96;100.00
12475;BME280;6302;42.624;23.334;2023-02-20T01:59:02;93625.84;;;8.92;100.00
12475;BME280;6302;42.624;23.334;2023-02-20T02:01:30;93636.41;;;8.85;100.00
12475;BME280;6302;42.624;23.334;2023-02-20T02:04:01;93644.31;;;8.85;100.00
12475;BME280;6302;42.624;23.334;2023-02-20T02:06:31;93646.59;;;8.83;100.00
12475;BME280;6302;42.624;23.334;2023-02-20T02:09:03;93647.69;;;8.78;100.00
12475;BME280;6302;42.624;23.334;2023-02-20T02:11:31;93655.19;;;8.69;100.00
12475;BME280;6302;42.624;23.334;2023-02-20T02:14:01;93651.00;;;8.58;100.00
12475;BME280;6302;42.624;23.334;2023-02-20T02:16:32;93646.44;;;8.55;100.00
12475;BME280;6302;42.624;23.334;2023-02-20T02:19:12;93652.06;;;8.49;100.00
12475;BME280;6302;42.624;23.334;2023-02-20T02:22:19;93642.66;;;8.52;100.00
12475;BME280;6302;42.624;23.334;2023-02-20T02:25:12;93650.19;;;8.50;100.00
12475;BME280;6302;42.624;23.334;2023-02-20T02:31:07;93638.44;;;8.40;100.00
12475;BME280;6302;42.624;23.334;2023-02-20T02:34:16;93635.41;;;8.38;100.00
12475;BME280;6302;42.624;23.334;2023-02-20T02:37:00;93641.44;;;8.35;100.00
12475;BME280;6302;42.624;23.334;2023-02-20T02:39:35;93654.22;;;8.26;100.00
12475;BME280;6302;42.624;23.334;2023-02-20T02:42:10;93659.06;;;8.24;100.00
12475;BME280;6302;42.624;23.334;2023-02-20T02:44:43;93666.97;;;8.21;100.00
12475;BME280;6302;42.624;23.334;2023-02-20T02:47:18;93658.66;;;8.19;100.00
12475;BME280;6302;42.624;23.334;2023-02-20T02:49:50;93651.84;;;8.14;100.00
12475;BME280;6302;42.624;23.334;2023-02-20T02:52:22;93651.09;;;8.17;100.00
12475;BME280;6302;42.624;23.334;2023-02-20T02:55:14;93667.69;;;8.14;100.00
12475;BME280;6302;42.624;23.334;2023-02-20T02:57:41;93652.56;;;8.11;100.00
12475;BME280;6302;42.624;23.334;2023-02-20T03:00:10;93654.81;;;8.09;100.00
12475;BME280;6302;42.624;23.334;2023-02-20T03:02:43;93642.78;;;8.12;100.00
12475;BME280;6302;42.624;23.334;2023-02-20T03:05:15;93640.53;;;8.14;100.00
12475;BME280;6302;42.624;23.334;2023-02-20T03:07:47;93616.38;;;8.12;100.00
12475;BME280;6302;42.624;23.334;2023-02-20T03:10:18;93643.94;;;8.14;100.00
12475;BME280;6302;42.624;23.334;2023-02-20T03:12:59;93634.44;;;8.06;100.00
12475;BME280;6302;42.624;23.334;2023-02-20T03:15:29;93651.78;;;8.07;100.00
12475;BME280;6302;42.624;23.334;2023-02-20T03:18:10;93660.06;;;8.02;100.00
12475;BME280;6302;42.624;23.334;2023-02-20T03:20:42;93675.09;;;7.98;100.00
12475;BME280;6302;42.624;23.334;2023-02-20T03:23:13;93686.41;;;7.99;100.00
12475;BME280;6302;42.624;23.334;2023-02-20T03:25:47;93691.66;;;7.95;100.00
12475;BME280;6302;42.624;23.334;2023-02-20T03:28:18;93680.75;;;7.97;100.00
12475;BME280;6302;42.624;23.334;2023-02-20T03:30:50;93679.16;;;7.88;100.00
12475;BME280;6302;42.624;23.334;2023-02-20T03:33:22;93699.13;;;7.86;100.00
12475;BME280;6302;42.624;23.334;2023-02-20T03:36:10;93681.03;;;7.84;100.00
12475;BME280;6302;42.624;23.334;2023-02-20T03:39:00;93722.44;;;7.80;100.00
12475;BME280;6302;42.624;23.334;2023-02-20T03:41:47;93727.66;;;7.73;100.00
12475;BME280;6302;42.624;23.334;2023-02-20T03:44:33;93708.09;;;7.78;100.00
12475;BME280;6302;42.624;23.334;2023-02-20T03:47:01;93714.13;;;7.78;100.00
12475;BME280;6302;42.624;23.334;2023-02-20T03:49:31;93712.56;;;7.74;100.00
12475;BME280;6302;42.624;23.334;2023-02-20T03:52:00;93708.03;;;7.71;100.00
12475;BME280;6302;42.624;23.334;2023-02-20T03:54:28;93708.72;;;7.64;100.00
12475;BME280;6302;42.624;23.334;2023-02-20T03:56:58;93707.19;;;7.63;100.00
12475;BME280;6302;42.624;23.334;2023-02-20T03:59:30;93695.88;;;7.63;100.00
12475;BME280;6302;42.624;23.334;2023-02-20T04:02:02;93726.81;;;7.62;100.00
12475;BME280;6302;42.624;23.334;2023-02-20T04:04:33;93721.53;;;7.66;100.00
12475;BME280;6302;42.624;23.334;2023-02-20T04:07:09;93729.81;;;7.64;100.00
12475;BME280;6302;42.624;23.334;2023-02-20T04:09:41;93726.75;;;7.59;100.00
12475;BME280;6302;42.624;23.334;2023-02-20T04:12:14;93734.34;;;7.64;100.00
12475;BME280;6302;42.624;23.334;2023-02-20T04:14:43;93740.41;;;7.68;100.00
12475;BME280;6302;42.624;23.334;2023-02-20T04:17:15;93721.22;;;7.71;100.00
12475;BME280;6302;42.624;23.334;2023-02-20T04:19:42;93729.50;;;7.69;100.00
12475;BME280;6302;42.624;23.334;2023-02-20T04:22:13;93729.13;;;7.71;100.00
12475;BME280;6302;42.624;23.334;2023-02-20T04:24:47;93729.81;;;7.64;100.00
12475;BME280;6302;42.624;23.334;2023-02-20T04:27:16;93738.91;;;7.67;100.00
12475;BME280;6302;42.624;23.334;2023-02-20T04:29:43;93744.94;;;7.71;100.00
12475;BME280;6302;42.624;23.334;2023-02-20T04:32:10;93747.28;;;7.76;100.00
12475;BME280;6302;42.624;23.334;2023-02-20T04:34:37;93726.88;;;7.69;100.00
12475;BME280;6302;42.624;23.334;2023-02-20T04:37:06;93743.34;;;7.63;100.00
12475;BME280;6302;42.624;23.334;2023-02-20T04:39:34;93738.38;;;7.54;100.00
12475;BME280;6302;42.624;23.334;2023-02-20T04:42:02;93724.44;;;7.54;100.00
12475;BME280;6302;42.624;23.334;2023-02-20T04:44:29;93734.19;;;7.50;100.00
12475;BME280;6302;42.624;23.334;2023-02-20T04:47:01;93710.78;;;7.45;100.00
12475;BME280;6302;42.624;23.334;2023-02-20T04:49:28;93719.81;;;7.44;100.00
12475;BME280;6302;42.624;23.334;2023-02-20T04:51:55;93725.41;;;7.39;100.00
12475;BME280;6302;42.624;23.334;2023-02-20T04:54:22;93716.00;;;7.41;100.00
12475;BME280;6302;42.624;23.334;2023-02-20T04:56:49;93722.78;;;7.39;100.00
12475;BME280;6302;42.624;23.334;2023-02-20T04:59:17;93735.63;;;7.44;100.00
12475;BME280;6302;42.624;23.334;2023-02-20T05:01:44;93746.19;;;7.44;100.00
12475;BME280;6302;42.624;23.334;2023-02-20T05:04:14;93756.34;;;7.42;100.00
12475;BME280;6302;42.624;23.334;2023-02-20T05:06:41;93726.53;;;7.38;98.45
12475;BME280;6302;42.624;23.334;2023-02-20T05:09:08;93748.34;;;7.35;95.64
12475;BME280;6302;42.624;23.334;2023-02-20T05:11:36;93768.34;;;7.36;94.76
12475;BME280;6302;42.624;23.334;2023-02-20T05:14:04;93773.91;;;7.31;96.11
12475;BME280;6302;42.624;23.334;2023-02-20T05:16:32;93766.72;;;7.28;96.12
12475;BME280;6302;42.624;23.334;2023-02-20T05:18:59;93770.44;;;7.23;97.19
12475;BME280;6302;42.624;23.334;2023-02-20T05:21:26;93786.50;;;7.14;98.51
12475;BME280;6302;42.624;23.334;2023-02-20T05:24:10;93780.13;;;7.15;98.95
12475;BME280;6302;42.624;23.334;2023-02-20T05:26:37;93781.94;;;7.11;100.00
12475;BME280;6302;42.624;23.334;2023-02-20T05:29:04;93776.28;;;7.09;100.00
12475;BME280;6302;42.624;23.334;2023-02-20T05:31:32;93785.75;;;7.14;100.00
12475;BME280;6302;42.624;23.334;2023-02-20T05:33:59;93787.31;;;7.18;100.00
12475;BME280;6302;42.624;23.334;2023-02-20T05:36:25;93779.81;;;7.20;100.00
12475;BME280;6302;42.624;23.334;2023-02-20T05:38:52;93788.75;;;7.12;100.00
12475;BME280;6302;42.624;23.334;2023-02-20T05:41:19;93806.19;;;7.20;100.00
12475;BME280;6302;42.624;23.334;2023-02-20T05:43:46;93808.38;;;7.18;100.00
12475;BME280;6302;42.624;23.334;2023-02-20T05:46:13;93804.25;;;7.17;100.00
12475;BME280;6302;42.624;23.334;2023-02-20T05:48:42;93794.47;;;7.18;100.00
12475;BME280;6302;42.624;23.334;2023-02-20T05:51:18;93794.81;;;7.16;100.00
12475;BME280;6302;42.624;23.334;2023-02-20T05:53:45;93783.97;;;7.21;100.00
12475;BME280;6302;42.624;23.334;2023-02-20T05:56:12;93798.66;;;7.22;100.00
12475;BME280;6302;42.624;23.334;2023-02-20T05:58:40;93786.09;;;7.42;88.74
12475;BME280;6302;42.624;23.334;2023-02-20T06:01:07;93803.28;;;7.62;85.41
12475;BME280;6302;42.624;23.334;2023-02-20T06:03:34;93791.00;;;7.77;80.52
12475;BME280;6302;42.624;23.334;2023-02-20T06:06:02;93791.16;;;7.91;77.11
12475;BME280;6302;42.624;23.334;2023-02-20T06:08:29;93805.53;;;7.97;74.98
12475;BME280;6302;42.624;23.334;2023-02-20T06:10:56;93802.56;;;8.02;74.12
12475;BME280;6302;42.624;23.334;2023-02-20T06:13:23;93821.78;;;7.99;74.43
12475;BME280;6302;42.624;23.334;2023-02-20T06:15:49;93837.22;;;7.97;73.58
12475;BME280;6302;42.624;23.334;2023-02-20T06:18:16;93833.44;;;7.98;73.27
12475;BME280;6302;42.624;23.334;2023-02-20T06:20:43;93818.31;;;7.95;76.55
12475;BME280;6302;42.624;23.334;2023-02-20T06:23:11;93810.84;;;8.01;75.68
12475;BME280;6302;42.624;23.334;2023-02-20T06:25:38;93804.88;;;8.07;71.91
12475;BME280;6302;42.624;23.334;2023-02-20T06:28:05;93813.28;;;8.20;70.65
12475;BME280;6302;42.624;23.334;2023-02-20T06:30:32;93814.13;;;8.27;71.47
12475;BME280;6302;42.624;23.334;2023-02-20T06:32:58;93819.50;;;8.34;71.75
12475;BME280;6302;42.624;23.334;2023-02-20T06:35:25;93814.28;;;8.41;69.40
12475;BME280;6302;42.624;23.334;2023-02-20T06:37:52;93836.25;;;8.52;70.28
12475;BME280;6302;42.624;23.334;2023-02-20T06:40:20;93817.41;;;8.58;68.88
12475;BME280;6302;42.624;23.334;2023-02-20T06:42:47;93836.28;;;8.60;68.30
12475;BME280;6302;42.624;23.334;2023-02-20T06:45:14;93840.88;;;8.66;68.11
12475;BME280;6302;42.624;23.334;2023-02-20T06:47:41;93842.72;;;8.59;70.14
12475;BME280;6302;42.624;23.334;2023-02-20T06:50:08;93849.09;;;8.54;70.22
12475;BME280;6302;42.624;23.334;2023-02-20T06:52:34;93846.84;;;8.60;70.00
12475;BME280;6302;42.624;23.334;2023-02-20T06:55:01;93830.91;;;8.45;70.67
12475;BME280;6302;42.624;23.334;2023-02-20T06:57:30;93857.59;;;8.33;72.88
12475;BME280;6302;42.624;23.334;2023-02-20T06:59:57;93853.41;;;8.32;74.46
12475;BME280;6302;42.624;23.334;2023-02-20T07:02:24;93861.75;;;8.34;73.06
12475;BME280;6302;42.624;23.334;2023-02-20T07:04:51;93883.91;;;8.26;70.33
12475;BME280;6302;42.624;23.334;2023-02-20T07:07:17;93854.91;;;8.30;70.29
12475;BME280;6302;42.624;23.334;2023-02-20T07:09:44;93853.13;;;8.41;69.76
12475;BME280;6302;42.624;23.334;2023-02-20T07:12:11;93855.81;;;8.48;68.94
12475;BME280;6302;42.624;23.334;2023-02-20T07:14:39;93844.16;;;8.52;69.50
12475;BME280;6302;42.624;23.334;2023-02-20T07:17:06;93841.84;;;8.47;67.44
12475;BME280;6302;42.624;23.334;2023-02-20T07:19:33;93853.19;;;8.48;65.54
12475;BME280;6302;42.624;23.334;2023-02-20T07:22:00;93879.28;;;8.53;61.57
12475;BME280;6302;42.624;23.334;2023-02-20T07:24:27;93855.88;;;8.55;65.10
12475;BME280;6302;42.624;23.334;2023-02-20T07:26:53;93878.16;;;8.54;65.48
12475;BME280;6302;42.624;23.334;2023-02-20T07:29:20;93843.47;;;8.59;59.11
12475;BME280;6302;42.624;23.334;2023-02-20T07:31:48;93868.84;;;8.71;59.88
12475;BME280;6302;42.624;23.334;2023-02-20T07:34:15;93870.34;;;8.68;62.55
12475;BME280;6302;42.624;23.334;2023-02-20T07:36:42;93867.59;;;8.54;64.00
12475;BME280;6302;42.624;23.334;2023-02-20T07:39:09;93866.50;;;8.59;63.82
12475;BME280;6302;42.624;23.334;2023-02-20T07:41:38;93867.28;;;8.63;59.12
12475;BME280;6302;42.624;23.334;2023-02-20T07:44:05;93869.97;;;8.70;58.42
12475;BME280;6302;42.624;23.334;2023-02-20T07:46:32;93889.22;;;8.70;52.25
12475;BME280;6302;42.624;23.334;2023-02-20T07:49:02;93876.78;;;8.74;54.86
12475;BME280;6302;42.624;23.334;2023-02-20T07:51:29;93884.38;;;8.76;53.34
12475;BME280;6302;42.624;23.334;2023-02-20T07:53:56;93887.44;;;8.81;53.79
12475;BME280;6302;42.624;23.334;2023-02-20T07:56:23;93876.47;;;8.79;52.37
12475;BME280;6302;42.624;23.334;2023-02-20T07:58:50;93908.59;;;8.85;54.39
12475;BME280;6302;42.624;23.334;2023-02-20T08:01:18;93896.06;;;8.75;56.04
12475;BME280;6302;42.624;23.334;2023-02-20T08:03:44;93868.13;;;8.74;55.91
12475;BME280;6302;42.624;23.334;2023-02-20T08:06:15;93882.75;;;8.64;54.59
12475;BME280;6302;42.624;23.334;2023-02-20T08:08:46;93905.75;;;8.60;55.33
12475;BME280;6302;42.624;23.334;2023-02-20T08:11:13;93879.03;;;8.69;55.89
12475;BME280;6302;42.624;23.334;2023-02-20T08:13:41;93876.06;;;8.77;55.38
12475;BME280;6302;42.624;23.334;2023-02-20T08:16:08;93873.88;;;8.86;55.44
12475;BME280;6302;42.624;23.334;2023-02-20T08:18:34;93867.50;;;8.91;56.08
12475;BME280;6302;42.624;23.334;2023-02-20T08:21:02;93880.00;;;8.97;56.57
12475;BME280;6302;42.624;23.334;2023-02-20T08:23:30;93900.72;;;8.92;56.93
12475;BME280;6302;42.624;23.334;2023-02-20T08:25:57;93865.69;;;9.02;58.09
12475;BME280;6302;42.624;23.334;2023-02-20T08:28:25;93861.88;;;8.96;57.65
12475;BME280;6302;42.624;23.334;2023-02-20T08:30:51;93852.81;;;8.97;57.96
12475;BME280;6302;42.624;23.334;2023-02-20T08:33:18;93869.06;;;8.99;53.74
12475;BME280;6302;42.624;23.334;2023-02-20T08:35:45;93882.06;;;9.18;55.65
12475;BME280;6302;42.624;23.334;2023-02-20T08:38:25;93879.13;;;9.37;58.25
12475;BME280;6302;42.624;23.334;2023-02-20T08:40:53;93879.94;;;9.48;57.59
12475;BME280;6302;42.624;23.334;2023-02-20T08:43:20;93923.81;;;9.49;55.50
12475;BME280;6302;42.624;23.334;2023-02-20T08:45:47;93889.78;;;9.48;53.22
12475;BME280;6302;42.624;23.334;2023-02-20T08:48:14;93907.88;;;9.42;53.97
12475;BME280;6302;42.624;23.334;2023-02-20T08:50:41;93891.66;;;9.47;53.77
12475;BME280;6302;42.624;23.334;2023-02-20T08:53:08;93889.72;;;9.37;52.12
12475;BME280;6302;42.624;23.334;2023-02-20T08:55:34;93886.66;;;9.32;53.85
12475;BME280;6302;42.624;23.334;2023-02-20T08:58:03;93894.63;;;9.35;53.76
12475;BME280;6302;42.624;23.334;2023-02-20T09:00:30;93883.25;;;9.28;53.29
12475;BME280;6302;42.624;23.334;2023-02-20T09:02:58;93894.31;;;9.47;54.08
12475;BME280;6302;42.624;23.334;2023-02-20T09:05:25;93868.22;;;9.46;53.50
12475;BME280;6302;42.624;23.334;2023-02-20T09:07:52;93897.22;;;9.28;53.63
12475;BME280;6302;42.624;23.334;2023-02-20T09:10:19;93871.84;;;9.20;55.24
12475;BME280;6302;42.624;23.334;2023-02-20T09:12:47;93875.66;;;9.23;55.68
12475;BME280;6302;42.624;23.334;2023-02-20T09:15:15;93851.91;;;9.33;56.05
12475;BME280;6302;42.624;23.334;2023-02-20T09:17:42;93871.97;;;9.38;55.31
12475;BME280;6302;42.624;23.334;2023-02-20T09:20:10;93851.97;;;9.44;56.59
12475;BME280;6302;42.624;23.334;2023-02-20T09:22:37;93836.13;;;9.51;56.45
12475;BME280;6302;42.624;23.334;2023-02-20T09:25:05;93863.72;;;9.50;57.76
12475;BME280;6302;42.624;23.334;2023-02-20T09:27:32;93873.91;;;9.51;57.61
12475;BME280;6302;42.624;23.334;2023-02-20T09:29:59;93841.31;;;9.30;57.96
12475;BME280;6302;42.624;23.334;2023-02-20T09:32:27;93842.50;;;9.39;59.35
12475;BME280;6302;42.624;23.334;2023-02-20T09:34:55;93844.50;;;9.63;59.80
12475;BME280;6302;42.624;23.334;2023-02-20T09:37:23;93842.56;;;9.53;56.18
12475;BME280;6302;42.624;23.334;2023-02-20T09:39:50;93846.41;;;9.66;59.91
12475;BME280;6302;42.624;23.334;2023-02-20T09:42:25;93866.47;;;9.74;57.65
12475;BME280;6302;42.624;23.334;2023-02-20T09:45:02;93863.03;;;9.70;57.60
12475;BME280;6302;42.624;23.334;2023-02-20T09:47:52;93854.38;;;9.80;57.22
12475;BME280;6302;42.624;23.334;2023-02-20T09:50:30;93863.06;;;9.74;57.93
12475;BME280;6302;42.624;23.334;2023-02-20T09:53:04;93848.31;;;9.69;57.71
12475;BME280;6302;42.624;23.334;2023-02-20T09:55:35;93863.47;;;9.79;58.33
12475;BME280;6302;42.624;23.334;2023-02-20T09:58:05;93853.28;;;9.85;56.33
12475;BME280;6302;42.624;23.334;2023-02-20T10:00:35;93874.81;;;9.76;55.57
12475;BME280;6302;42.624;23.334;2023-02-20T10:03:15;93879.38;;;9.90;53.96
12475;BME280;6302;42.624;23.334;2023-02-20T10:05:44;93881.34;;;10.04;52.73
12475;BME280;6302;42.624;23.334;2023-02-20T10:08:19;93874.13;;;10.01;52.40
12475;BME280;6302;42.624;23.334;2023-02-20T10:10:48;93848.41;;;9.98;49.66
12475;BME280;6302;42.624;23.334;2023-02-20T10:13:28;93871.13;;;10.06;49.36
12475;BME280;6302;42.624;23.334;2023-02-20T10:16:00;93874.22;;;10.25;48.31
12475;BME280;6302;42.624;23.334;2023-02-20T10:18:36;93871.59;;;10.29;46.84
12475;BME280;6302;42.624;23.334;2023-02-20T10:21:14;93885.63;;;10.40;46.65
12475;BME280;6302;42.624;23.334;2023-02-20T10:23:47;93863.25;;;10.16;45.30
12475;BME280;6302;42.624;23.334;2023-02-20T10:26:19;93864.69;;;10.10;46.37
12475;BME280;6302;42.624;23.334;2023-02-20T10:28:47;93859.88;;;10.30;46.79
12475;BME280;6302;42.624;23.334;2023-02-20T10:31:25;93861.41;;;10.38;46.39
12475;BME280;6302;42.624;23.334;2023-02-20T10:34:00;93844.69;;;10.20;44.28
12475;BME280;6302;42.624;23.334;2023-02-20T10:36:33;93848.16;;;10.31;44.41
12475;BME280;6302;42.624;23.334;2023-02-20T10:39:06;93848.53;;;10.47;45.02
12475;BME280;6302;42.624;23.334;2023-02-20T10:41:37;93858.38;;;10.50;44.84
12475;BME280;6302;42.624;23.334;2023-02-20T10:44:12;93841.00;;;10.70;43.74
12475;BME280;6302;42.624;23.334;2023-02-20T10:46:47;93858.41;;;10.64;43.88
12475;BME280;6302;42.624;23.334;2023-02-20T10:49:21;93853.09;;;10.61;42.53
12475;BME280;6302;42.624;23.334;2023-02-20T10:51:51;93847.78;;;10.50;43.52
12475;BME280;6302;42.624;23.334;2023-02-20T10:54:24;93847.03;;;10.46;42.28
12475;BME280;6302;42.624;23.334;2023-02-20T10:56:57;93831.50;;;10.48;42.64
12475;BME280;6302;42.624;23.334;2023-02-20T10:59:29;93827.72;;;10.60;43.05
12475;BME280;6302;42.624;23.334;2023-02-20T11:02:00;93820.16;;;10.58;43.62
12475;BME280;6302;42.624;23.334;2023-02-20T11:04:34;93819.78;;;10.63;43.06
12475;BME280;6302;42.624;23.334;2023-02-20T11:07:04;93825.84;;;10.67;43.57
12475;BME280;6302;42.624;23.334;2023-02-20T11:09:33;93810.31;;;10.76;44.16
12475;BME280;6302;42.624;23.334;2023-02-20T11:12:00;93825.47;;;10.93;43.06
12475;BME280;6302;42.624;23.334;2023-02-20T11:14:31;93821.28;;;10.92;44.29
12475;BME280;6302;42.624;23.334;2023-02-20T11:17:02;93811.81;;;10.88;45.89
12475;BME280;6302;42.624;23.334;2023-02-20T11:19:37;93817.50;;;10.93;46.51
12475;BME280;6302;42.624;23.334;2023-02-20T11:22:05;93825.41;;;11.11;46.71
12475;BME280;6302;42.624;23.334;2023-02-20T11:24:33;93822.38;;;11.20;44.84
12475;BME280;6302;42.624;23.334;2023-02-20T11:27:06;93821.25;;;11.21;44.79
12475;BME280;6302;42.624;23.334;2023-02-20T11:29:38;93828.44;;;11.20;45.08
12475;BME280;6302;42.624;23.334;2023-02-20T11:32:25;93835.63;;;11.27;44.47
12475;BME280;6302;42.624;23.334;2023-02-20T11:35:14;93826.56;;;11.21;43.91
12475;BME280;6302;42.624;23.334;2023-02-20T11:37:47;93837.16;;;11.17;45.59
12475;BME280;6302;42.624;23.334;2023-02-20T11:40:16;93830.72;;;11.15;46.14
12475;BME280;6302;42.624;23.334;2023-02-20T11:42:47;93841.69;;;11.31;45.96
12475;BME280;6302;42.624;23.334;2023-02-20T11:45:19;93843.59;;;11.20;46.59
12475;BME280;6302;42.624;23.334;2023-02-20T11:48:05;93850.44;;;11.06;45.11
12475;BME280;6302;42.624;23.334;2023-02-20T11:50:39;93847.03;;;11.02;45.89
12475;BME280;6302;42.624;23.334;2023-02-20T11:53:17;93849.31;;;11.07;45.88
12475;BME280;6302;42.624;23.334;2023-02-20T11:55:45;93836.41;;;11.17;45.46
12475;BME280;6302;42.624;23.334;2023-02-20T11:58:20;93839.44;;;11.15;46.09
12475;BME280;6302;42.624;23.334;2023-02-20T12:00:49;93831.09;;;11.17;45.88
12475;BME280;6302;42.624;23.334;2023-02-20T12:03:20;93821.25;;;11.13;45.76
12475;BME280;6302;42.624;23.334;2023-02-20T12:05:50;93823.50;;;11.19;45.32
12475;BME280;6302;42.624;23.334;2023-02-20T12:08:48;93819.34;;;11.14;45.24
12475;BME280;6302;42.624;23.334;2023-02-20T12:11:19;93822.38;;;11.27;45.75
12475;BME280;6302;42.624;23.334;2023-02-20T12:13:47;93812.53;;;11.20;45.32
12475;BME280;6302;42.624;23.334;2023-02-20T12:16:25;93809.09;;;11.27;44.76
12475;BME280;6302;42.624;23.334;2023-02-20T12:19:00;93815.53;;;11.40;44.15
12475;BME280;6302;42.624;23.334;2023-02-20T12:21:39;93831.75;;;11.56;43.81
12475;BME280;6302;42.624;23.334;2023-02-20T12:24:27;93827.22;;;11.56;43.47
12475;BME280;6302;42.624;23.334;2023-02-20T12:26:57;93838.56;;;11.64;43.90
12475;BME280;6302;42.624;23.334;2023-02-20T12:29:34;93831.03;;;11.52;42.75
12475;BME280;6302;42.624;23.334;2023-02-20T12:32:15;93825.72;;;11.52;43.98
12475;BME280;6302;42.624;23.334;2023-02-20T12:34:53;93831.03;;;11.52;43.93
12475;BME280;6302;42.624;23.334;2023-02-20T12:37:32;93827.97;;;11.53;43.90
12475;BME280;6302;42.624;23.334;2023-02-20T12:40:19;93836.38;;;11.38;44.10
12475;BME280;6302;42.624;23.334;2023-02-20T12:42:52;93830.66;;;11.50;44.25
12475;BME280;6302;42.624;23.334;2023-02-20T12:45:26;93825.72;;;11.52;44.73
12475;BME280;6302;42.624;23.334;2023-02-20T12:48:11;93816.66;;;11.39;44.45
12475;BME280;6302;42.624;23.334;2023-02-20T12:50:54;93814.38;;;11.48;43.85
12475;BME280;6302;42.624;23.334;2023-02-20T12:53:45;93821.56;;;11.47;44.29
12475;BME280;6302;42.624;23.334;2023-02-20T12:56:28;93812.47;;;11.41;44.33
12475;BME280;6302;42.624;23.334;2023-02-20T12:59:06;93811.00;;;11.19;45.41
12475;BME280;6302;42.624;23.334;2023-02-20T13:01:34;93808.38;;;11.16;45.46
12475;BME280;6302;42.624;23.334;2023-02-20T13:04:05;93820.88;;;11.26;45.98
12475;BME280;6302;42.624;23.334;2023-02-20T13:06:38;93820.09;;;11.25;45.30
12475;BME280;6302;42.624;23.334;2023-02-20T13:09:18;93832.56;;;11.39;45.46
12475;BME280;6302;42.624;23.334;2023-02-20T13:11:49;93836.38;;;11.34;45.12
12475;BME280;6302;42.624;23.334;2023-02-20T13:14:24;93834.13;;;11.19;44.88
12475;BME280;6302;42.624;23.334;2023-02-20T13:17:02;93833.00;;;11.23;46.00
12475;BME280;6302;42.624;23.334;2023-02-20T13:19:38;93823.09;;;11.31;45.85
12475;BME280;6302;42.624;23.334;2023-02-20T13:22:06;93820.50;;;11.17;46.65
12475;BME280;6302;42.624;23.334;2023-02-20T13:24:35;93819.72;;;11.20;46.59
12475;BME280;6302;42.624;23.334;2023-02-20T13:27:04;93815.94;;;11.28;46.48
12475;BME280;6302;42.624;23.334;2023-02-20T13:29:34;93827.66;;;11.34;47.38
12475;BME280;6302;42.624;23.334;2023-02-20T13:32:21;93817.44;;;11.29;47.15